Hennessey, Oklahoma
Current Conditions -  °F | °C
As of 6:58 PM on Thursday 27 Nov 2014 (Local Time) from KEND Reporting Station
Clear Clear  
Wind Chill:   Ceiling: Unl
Heat Index:   Visibility: 10mi
Dew Point: -5°   Wind: 10mph
Humidity: 45%   Direction: 180°S
Pressure: 30.28"   Gusts: NA
Location:  36.11°N, 97.9°W
Report Text: KEND 280058Z AUTO 18009KT 10SM CLR 06/M05 A3028 RMK AO2 SLP266 T00631050 $
Loading
Personal Weather Stations






























Interactive Weather Map New forecast layout! Learn more

10-Day Weather Forecast

Advertisements
Track Severe Weather on mobile